x

Edisto - 41 Nm Southeast Of Charleston, Sc (41004) Wave Buoy

10:50pm - Tue 21st Oct 2014 All times are EDT. -4 hours from GMT.

  • Sig Wave height 2.6ft
  • Swell Direction
  • Peak Period 3s
  • Average Period 4s
  • Wind
    16mph, 20mph gusts
  • Sea Temp 79°f
  • Air Temp 76°f
  • Sea Pressure 1013mb
  • Edisto - 41 Nm Southeast Of Charleston, Sc
  • Edisto - 41 Nm Southeast Of Charleston, Sc

More Historic Weather Station data

Upgrade to MSW Pro to gain access to the past 30 days of data for over 8000 Wavebouys and Weather Stations around the globe.

Join Pro

Comparision Forecast

View Surf forecast
   
Tue 10/21 10:50pm 2.5ft 3s 4s 16 20 mph 1013mb 79f 76f
9:50pm 2.5ft 9s 4s 16 20 mph 1012.7mb 79f 76f
8:50pm 2.5ft 9s 4s 16 18 mph 1012.2mb 79f 75f
7:50pm 2.5ft 9s 4s 16 18 mph 1011.9mb 79f 75f
6:50pm 2.5ft 8s 4s 13 18 mph 1011.5mb 79f 74f
5:50pm 2ft 9s 5s 13 16 mph 1011.4mb 79f 74f
4:50pm 2ft 9s 5s 11 13 mph 1011.4mb 80f 74f
3:50pm 2ft 9s 5s 7 9 mph 1011.6mb 80f 74f
2:50pm 2.5ft 9s 5s 7 9 mph 1011.9mb 80f 73f
1:50pm 2.5ft 9s 5s 9 11 mph 1012.6mb 80f 73f
12:50pm 2ft 8s 5s 7 11 mph 1013.5mb 80f 73f
11:50am 2ft 9s 5s 11 13 mph 1013.9mb 79f 73f
10:50am 2ft 9s 6s 11 16 mph 1014mb 79f 73f
9:50am 2ft 8s 6s 9 11 mph 1014.3mb 79f 74f
8:50am 2.5ft 10s 6s 7 9 mph 1014mb 79f 74f
7:50am 2.5ft 9s 6s 9 11 mph 1013.6mb 79f 73f
6:50am 2ft 9s 6s 7
mph
1013.5mb 79f 74f
5:50am 2.5ft 9s 6s 7 9 mph 1013.5mb 79f 74f
4:50am 2ft 9s 6s  -  2 mph 1013.5mb 79f 74f
3:50am 2ft 9s 6s 4
mph
1013.2mb 79f 74f
2:50am 2.5ft 8s 6s 4
mph
1013.9mb 79f 73f
1:50am 2.5ft 9s 6s 4 7 mph 1014.6mb 79f 72f
12:50am 2.5ft 8s 6s 2
mph
1015mb 80f 75f
Mon 10/20 11:50pm 2.5ft 9s 6s 4
mph
1015.6mb 80f 75f
10:50pm 2.5ft 9s 6s 4 7 mph 1016mb 80f 76f
9:50pm 2.5ft 9s 6s 4 7 mph 1015.9mb 80f 76f
8:50pm 2.5ft 9s 6s 7 9 mph 1015.7mb 80f 76f
7:50pm 2.5ft 9s 7s 9 11 mph 1015.6mb 79f 76f
6:50pm 2.5ft 9s 6s 7 9 mph 1015.3mb 79f 75f
5:50pm 2.5ft 9s 7s 7 9 mph 1015.4mb 80f 75f
4:50pm 2.5ft 9s 6s 9 11 mph 1015.8mb 80f 75f
3:50pm 2.5ft 9s 6s 9 11 mph 1016.2mb 80f 74f
2:50pm 2.5ft 8s 6s 7 11 mph 1016.7mb 80f 74f
1:50pm 2.5ft 9s 6s 7 11 mph 1017.6mb 80f 73f
12:50pm 2.5ft 10s 6s 9
mph
1018.7mb 80f 73f
11:50am 2.5ft 9s 6s 9 11 mph 1019.7mb 80f 73f
10:50am 2.5ft 10s 6s 9 11 mph 1020mb 80f 72f
9:50am 2.5ft 8s 6s 9 11 mph 1020.2mb 79f 72f
8:50am 2.5ft 10s 6s 4 7 mph 1019.9mb 79f 72f
7:50am 2.5ft 9s 6s 4 7 mph 1019.4mb 79f 71f
6:50am 2.5ft 9s 5s 4 7 mph 1019.2mb 79f 71f
5:50am 2.5ft 10s 6s 4 9 mph 1019mb 79f 70f
4:50am 2.5ft 11s 6s 4 9 mph 1019mb 79f 70f
3:50am 2.5ft 11s 5s 7 11 mph 1019.3mb 80f 69f
2:50am 2.5ft 9s 5s 7 11 mph 1019.6mb 80f 69f
1:50am 2.5ft 9s 5s 4 9 mph 1019.8mb 80f 69f
Sun 10/19 11:50pm 2.5ft 11s 5s 11 13 mph 1019.5mb 80f 69f
10:50pm 2.5ft 12s 5s 9 13 mph 1019.7mb 80f 69f
9:50pm 3ft 5s 5s 9 13 mph 1019.4mb 79f 69f
8:50pm 3ft 6s 5s 7 11 mph 1019.2mb 79f 68f
7:50pm 3.5ft 11s 5s 11 16 mph 1018.9mb 79f 68f
6:50pm 3.5ft 6s 5s 9 13 mph 1018.3mb 79f 67f
5:50pm 4.5ft 7s 5s 9 16 mph 1017.8mb 79f 67f
4:50pm 4.5ft 6s 5s 13 16 mph 1017.6mb 79f 66f
3:50pm 5ft 7s 5s 13 20 mph 1017.7mb 79f 66f
2:50pm 5ft 6s 5s 13 18 mph 1017.7mb 80f 66f
1:50pm 5ft 7s 5s 16 18 mph 1017.7mb 79f 65f
12:50pm 5ft 6s 5s 18 22 mph 1018.1mb 79f 65f
11:50am 5ft 6s 5s 20 25 mph 1018.3mb 79f 65f
10:50am 5.5ft 6s 5s 20 27 mph 1018.3mb 78f 65f
9:50am 5.5ft 6s 5s 22 27 mph 1017.9mb 78f 65f
8:50am 6ft 6s 5s 25 29 mph 1017mb 78f 66f
7:50am 6ft 6s 5s 25 29 mph 1016mb 78f 67f
6:50am 6ft 6s 5s 22 27 mph 1014.8mb 78f 68f
5:50am 6ft 6s 5s 25 29 mph 1013.7mb 79f 69f
4:50am 6ft 6s 5s 25 31 mph 1013.1mb 79f 70f
3:50am 4.5ft 4s 5s 25 31 mph 1012.5mb 79f 71f
2:50am 4.5ft 11s 5s 25 34 mph 1012.1mb 79f 73f
1:50am 4.5ft 12s 5s 20 25 mph 1011.3mb 79f 74f
12:50am 4.5ft 12s 5s 22 27 mph 1010.6mb 79f 76f
Sat 10/18 11:50pm 4.5ft 12s 5s 20 25 mph 1010.7mb 79f 78f
10:50pm 5ft 12s 5s 16 18 mph 1010.6mb 80f 78f
9:50pm 5.5ft 13s 5s 18 20 mph 1010.6mb 80f 78f
8:50pm 5ft 13s 5s 20 22 mph 1010.1mb 80f 78f
7:50pm 5ft 13s 5s 22 27 mph 1009.6mb 80f 78f
6:50pm 5.5ft 12s 5s 22 27 mph 1008.8mb 81f 78f
5:50pm 5.5ft 12s 5s 22 27 mph 1008.5mb 81f 78f
4:50pm 5ft 14s 5s 22 25 mph 1008.3mb 81f 77f
3:50pm 4.5ft 13s 5s 20 25 mph 1008.4mb 81f 77f
2:50pm 4.5ft 10s 5s 18 22 mph 1008.8mb 81f 76f
1:50pm 4.5ft 11s 5s 20 22 mph 1009.4mb 80f 75f
12:50pm 4.5ft 11s 5s 16 20 mph 1010.5mb 80f 75f
11:50am 4.5ft 13s 5s 18 20 mph 1011.1mb 80f 75f
10:50am 4.5ft 12s 5s 18 22 mph 1011.5mb 79f 75f
9:50am 4.5ft 13s 5s 18 22 mph 1011.5mb 79f 76f
8:50am 4.5ft 13s 5s 18 22 mph 1011.3mb 79f 76f
7:50am 4.5ft 11s 5s 18 22 mph 1010.9mb 79f 75f
6:50am 4.5ft 13s 5s 18 22 mph 1010.7mb 79f 76f
5:50am 4.5ft 13s 5s 20 25 mph 1010.5mb 79f 76f
4:50am 4.5ft 5s 5s 20 25 mph 1010.3mb 79f 77f